Time;durP1;ratioP1;P1;durP2;ratioP2;P2;SDS_P1;SDS_P2;PMS_P1;PMS_P2;Temp;Humidity;BMP_temperature;BMP_pressure;BME280_temperature;BME280_humidity;BME280_pressure;Samples;Min_cycle;Max_cycle;Signal;HPM_P1;HPM_P2
2021/05/17 00:01:40;;;;;;;15.97;10.20;;;;;;;;;;5136920;28;20486;-57
2021/05/17 00:04:07;;;;;;;12.53;7.80;;;;;;;;;;5138916;28;20446;-61
2021/05/17 00:06:36;;;;;;;5.83;3.43;;;;;;;;;;5138868;28;20661;-57
2021/05/17 00:09:03;;;;;;;3.30;1.77;;;;;;;;;;5138433;28;20466;-58
2021/05/17 00:11:30;;;;;;;4.30;2.10;;;;;;;;;;5135625;28;20440;-59
2021/05/17 00:14:15;;;;;;;8.87;1.60;;;;;;;;;;5118090;28;20513;-57
2021/05/17 00:16:42;;;;;;;3.70;1.73;;;;;;;;;;5118563;28;20458;-54
2021/05/17 00:19:09;;;;;;;2.83;1.30;;;;;;;;;;5117842;28;20455;-54
2021/05/17 00:21:48;;;;;;;3.43;1.83;;;;;;;;;;5126382;28;20488;-57
2021/05/17 00:24:16;;;;;;;3.50;1.70;;;;;;;;;;5138330;28;20435;-60
2021/05/17 00:26:43;;;;;;;3.70;2.27;;;;;;;;;;5138684;28;20419;-54
2021/05/17 00:29:11;;;;;;;5.20;3.40;;;;;;;;;;5138435;28;20474;-61
2021/05/17 00:31:37;;;;;;;7.33;4.57;;;;;;;;;;5138502;28;20465;-54
2021/05/17 00:34:05;;;;;;;5.60;3.37;;;;;;;;;;5138729;28;20464;-55
2021/05/17 00:39:37;;;;;;;5.20;3.40;;;;;;;;;;5123417;28;20446;-53
2021/05/17 00:42:04;;;;;;;3.10;2.00;;;;;;;;;;5107446;28;20452;-59
2021/05/17 00:44:39;;;;;;;4.20;2.20;;;;;;;;;;5102798;28;20447;-59
2021/05/17 00:47:07;;;;;;;6.77;2.97;;;;;;;;;;5117777;28;20443;-57
2021/05/17 00:49:33;;;;;;;4.60;2.60;;;;;;;;;;5117253;28;20458;-56
2021/05/17 00:52:01;;;;;;;4.10;2.60;;;;;;;;;;5117411;28;20455;-56
2021/05/17 00:54:28;;;;;;;3.80;2.07;;;;;;;;;;5117321;28;20452;-52
2021/05/17 00:56:56;;;;;;;3.83;2.13;;;;;;;;;;5118116;28;20515;-55
2021/05/17 00:59:55;;;;;;;5.60;2.97;;;;;;;;;;5117758;28;20489;-55
2021/05/17 01:02:22;;;;;;;3.20;2.00;;;;;;;;;;5117514;28;20440;-53
2021/05/17 01:04:49;;;;;;;5.73;2.40;;;;;;;;;;5118017;28;20431;-57
2021/05/17 01:07:49;;;;;;;5.77;2.50;;;;;;;;;;5118246;28;20455;-54
2021/05/17 01:10:17;;;;;;;6.90;3.40;;;;;;;;;;5117838;28;20911;-51
2021/05/17 01:12:46;;;;;;;6.20;3.70;;;;;;;;;;5117994;28;20475;-55
2021/05/17 01:15:26;;;;;;;5.67;4.30;;;;;;;;;;5117816;28;20474;-54
2021/05/17 01:17:53;;;;;;;6.40;4.10;;;;;;;;;;5131684;28;20478;-53
2021/05/17 01:20:21;;;;;;;4.90;3.27;;;;;;;;;;5119911;28;20450;-56
2021/05/17 01:22:52;;;;;;;7.20;5.50;;;;;;;;;;5116978;28;20451;-53
2021/05/17 01:25:24;;;;;;;6.47;3.53;;;;;;;;;;5117074;28;20442;-60
2021/05/17 01:28:03;;;;;;;3.90;2.23;;;;;;;;;;5116946;28;20505;-53
2021/05/17 01:30:29;;;;;;;5.50;1.97;;;;;;;;;;5117050;28;20443;-59
2021/05/17 01:32:56;;;;;;;4.17;2.17;;;;;;;;;;5117474;28;20455;-60
2021/05/17 01:35:42;;;;;;;4.57;1.47;;;;;;;;;;5137301;28;20465;-55
2021/05/17 01:38:09;;;;;;;3.43;1.60;;;;;;;;;;5135326;27;20523;-56
2021/05/17 01:40:38;;;;;;;3.40;1.87;;;;;;;;;;5136983;28;20459;-58
2021/05/17 01:43:05;;;;;;;7.67;1.90;;;;;;;;;;5137364;28;20492;-58
2021/05/17 01:45:32;;;;;;;2.73;1.30;;;;;;;;;;5122037;28;20444;-57
2021/05/17 01:47:59;;;;;;;5.10;3.07;;;;;;;;;;5116621;28;20504;-62
2021/05/17 01:50:37;;;;;;;5.90;2.23;;;;;;;;;;5119090;28;20432;-53
2021/05/17 01:53:05;;;;;;;3.33;1.80;;;;;;;;;;5136965;28;20488;-57
2021/05/17 01:55:32;;;;;;;6.33;2.47;;;;;;;;;;5137512;28;20442;-57
2021/05/17 01:58:06;;;;;;;5.97;1.70;;;;;;;;;;5136878;28;20453;-61
2021/05/17 02:00:35;;;;;;;3.77;1.50;;;;;;;;;;5134676;28;20473;-56
2021/05/17 02:03:03;;;;;;;6.23;2.50;;;;;;;;;;5136692;28;20439;-58
2021/05/17 02:05:29;;;;;;;4.37;1.80;;;;;;;;;;5137309;27;20437;-51
2021/05/17 02:07:57;;;;;;;4.93;1.83;;;;;;;;;;5137198;28;20461;-55
2021/05/17 02:10:39;;;;;;;6.53;2.17;;;;;;;;;;5136772;28;20485;-53
2021/05/17 02:13:08;;;;;;;5.63;2.80;;;;;;;;;;5136768;28;20458;-54
2021/05/17 02:15:35;;;;;;;4.50;1.47;;;;;;;;;;5136691;28;20485;-58
2021/05/17 02:18:03;;;;;;;3.70;1.50;;;;;;;;;;5136669;28;20476;-56
2021/05/17 02:20:31;;;;;;;3.10;1.60;;;;;;;;;;5136751;28;20442;-57
2021/05/17 02:23:07;;;;;;;5.07;1.50;;;;;;;;;;5137062;28;20439;-58
2021/05/17 02:25:34;;;;;;;2.57;1.33;;;;;;;;;;5136576;28;20449;-49
2021/05/17 02:28:01;;;;;;;8.10;1.50;;;;;;;;;;5136775;28;20478;-55
2021/05/17 02:30:54;;;;;;;3.77;1.50;;;;;;;;;;5136635;27;20461;-50
2021/05/17 02:33:22;;;;;;;3.77;2.33;;;;;;;;;;5136778;28;20484;-60
2021/05/17 02:35:49;;;;;;;3.80;1.37;;;;;;;;;;5136798;28;20480;-59
2021/05/17 02:38:35;;;;;;;6.83;1.73;;;;;;;;;;5136864;28;20434;-58
2021/05/17 02:41:02;;;;;;;3.00;1.70;;;;;;;;;;5136501;28;20442;-54
2021/05/17 02:43:29;;;;;;;4.47;1.73;;;;;;;;;;5137343;28;20415;-53
2021/05/17 02:46:02;;;;;;;3.20;1.50;;;;;;;;;;5136688;28;20586;-56
2021/05/17 02:48:30;;;;;;;4.10;2.10;;;;;;;;;;5136740;28;20493;-58
2021/05/17 02:50:57;;;;;;;5.17;2.53;;;;;;;;;;5136508;28;20477;-52
2021/05/17 02:53:50;;;;;;;2.70;1.57;;;;;;;;;;5137164;28;20446;-64
2021/05/17 02:56:18;;;;;;;3.03;1.47;;;;;;;;;;5136291;28;20480;-54
2021/05/17 02:58:45;;;;;;;4.20;1.30;;;;;;;;;;5137608;28;20438;-55
2021/05/17 03:01:37;;;;;;;5.53;1.80;;;;;;;;;;5140643;28;20488;-59
2021/05/17 03:04:14;;;;;;;3.03;1.30;;;;;;;;;;5140725;28;20442;-60
2021/05/17 03:06:56;;;;;;;3.53;1.80;;;;;;;;;;5139775;28;20458;-54
2021/05/17 03:09:24;;;;;;;3.50;1.53;;;;;;;;;;5140219;28;20474;-59
2021/05/17 03:11:51;;;;;;;3.20;1.57;;;;;;;;;;5140421;28;20451;-62
2021/05/17 03:14:29;;;;;;;2.60;1.30;;;;;;;;;;5140280;28;20451;-58
2021/05/17 03:16:59;;;;;;;2.83;1.33;;;;;;;;;;5136555;28;20455;-56
2021/05/17 03:19:28;;;;;;;4.47;3.00;;;;;;;;;;5119904;28;20459;-58
2021/05/17 03:21:57;;;;;;;4.43;1.43;;;;;;;;;;5119592;28;20442;-62
2021/05/17 03:24:31;;;;;;;2.70;1.43;;;;;;;;;;5137746;28;20481;-56
2021/05/17 03:27:09;;;;;;;2.40;1.07;;;;;;;;;;5139430;28;20449;-59
2021/05/17 03:29:35;;;;;;;4.50;1.50;;;;;;;;;;5139685;28;20489;-57
2021/05/17 03:32:02;;;;;;;3.40;1.77;;;;;;;;;;5133366;28;20584;-55
2021/05/17 03:34:42;;;;;;;4.67;1.60;;;;;;;;;;5131410;28;20450;-61
2021/05/17 03:37:08;;;;;;;4.53;1.80;;;;;;;;;;5128950;28;20454;-59
2021/05/17 03:39:35;;;;;;;4.03;1.73;;;;;;;;;;5122900;28;20476;-57
2021/05/17 03:42:13;;;;;;;2.87;1.20;;;;;;;;;;5139095;28;20487;-58
2021/05/17 03:44:40;;;;;;;2.80;1.60;;;;;;;;;;5139195;28;20458;-58
2021/05/17 03:47:09;;;;;;;5.07;1.90;;;;;;;;;;5139779;28;20492;-55
2021/05/17 03:49:37;;;;;;;3.70;1.90;;;;;;;;;;5139421;28;20524;-59
2021/05/17 03:52:05;;;;;;;3.70;1.87;;;;;;;;;;5137793;28;20458;-60
2021/05/17 03:54:32;;;;;;;2.60;1.33;;;;;;;;;;5139360;28;20437;-57
2021/05/17 03:57:07;;;;;;;3.17;1.70;;;;;;;;;;5139262;28;20461;-56
2021/05/17 03:59:35;;;;;;;3.30;1.33;;;;;;;;;;5139604;27;20452;-53
2021/05/17 04:02:01;;;;;;;2.40;1.63;;;;;;;;;;5132331;28;20440;-59
2021/05/17 04:04:37;;;;;;;3.07;1.67;;;;;;;;;;5118557;28;20443;-57
2021/05/17 04:07:14;;;;;;;3.80;2.23;;;;;;;;;;5118058;28;20488;-56
2021/05/17 04:15:31;;;;;;;3.20;1.53;;;;;;;;;;5110599;28;20453;-58
2021/05/17 04:18:00;;;;;;;3.77;1.63;;;;;;;;;;5117913;28;20443;-54
2021/05/17 04:20:27;;;;;;;3.27;1.90;;;;;;;;;;5126097;28;20446;-60
2021/05/17 04:22:55;;;;;;;8.30;2.00;;;;;;;;;;5137779;28;20652;-55
2021/05/17 04:25:33;;;;;;;3.33;1.73;;;;;;;;;;5138811;28;20485;-58
2021/05/17 04:28:00;;;;;;;2.00;1.13;;;;;;;;;;5137559;28;20474;-59
2021/05/17 04:30:27;;;;;;;3.70;1.97;;;;;;;;;;5137967;28;20510;-61
2021/05/17 04:32:56;;;;;;;4.10;2.30;;;;;;;;;;5138051;28;20473;-61
2021/05/17 04:35:23;;;;;;;4.30;1.83;;;;;;;;;;5137550;28;20466;-59
2021/05/17 04:37:49;;;;;;;3.13;1.40;;;;;;;;;;5137819;28;20450;-59
2021/05/17 04:40:22;;;;;;;6.37;1.90;;;;;;;;;;5123918;28;20900;-57
2021/05/17 04:42:51;;;;;;;3.40;1.50;;;;;;;;;;5117079;28;20451;-58
2021/05/17 04:45:23;;;;;;;4.37;1.63;;;;;;;;;;5126168;28;20463;-59
2021/05/17 04:48:15;;;;;;;5.33;2.00;;;;;;;;;;5137160;28;20481;-57
2021/05/17 04:50:43;;;;;;;2.70;1.53;;;;;;;;;;5137059;27;20454;-60
2021/05/17 04:53:12;;;;;;;5.20;1.60;;;;;;;;;;5137883;28;20434;-61
2021/05/17 04:55:46;;;;;;;2.97;1.50;;;;;;;;;;5137044;28;20469;-55
2021/05/17 04:58:13;;;;;;;5.00;2.20;;;;;;;;;;5136845;28;20473;-51
2021/05/17 05:00:40;;;;;;;5.13;1.50;;;;;;;;;;5128431;28;20699;-58
2021/05/17 05:03:34;;;;;;;3.60;1.83;;;;;;;;;;5116628;28;20451;-53
2021/05/17 05:06:01;;;;;;;5.27;2.23;;;;;;;;;;5116061;28;20512;-54
2021/05/17 05:08:28;;;;;;;4.40;1.60;;;;;;;;;;5128687;27;20490;-58
2021/05/17 05:11:01;;;;;;;6.87;2.20;;;;;;;;;;5117813;28;20459;-57
2021/05/17 05:13:30;;;;;;;5.20;1.93;;;;;;;;;;5116060;28;20467;-59
2021/05/17 05:16:16;;;;;;;3.50;1.87;;;;;;;;;;5121429;28;20491;-56
2021/05/17 05:18:43;;;;;;;3.03;1.90;;;;;;;;;;5135755;27;20453;-60
2021/05/17 05:21:10;;;;;;;3.70;1.70;;;;;;;;;;5135975;28;20493;-53
2021/05/17 05:24:13;;;;;;;4.17;1.87;;;;;;;;;;5135940;28;20504;-60
2021/05/17 05:27:06;;;;;;;4.63;1.60;;;;;;;;;;5136247;28;20448;-53
2021/05/17 05:29:58;;;;;;;4.10;1.57;;;;;;;;;;5135508;28;20497;-59
2021/05/17 05:32:29;;;;;;;3.83;1.60;;;;;;;;;;5135864;28;20449;-60
2021/05/17 05:35:02;;;;;;;6.73;4.50;;;;;;;;;;5135900;28;20514;-61
2021/05/17 05:37:28;;;;;;;5.43;1.57;;;;;;;;;;5135397;28;20458;-55
2021/05/17 05:39:58;;;;;;;3.70;1.40;;;;;;;;;;5132885;28;20429;-56
2021/05/17 05:43:10;;;;;;;2.77;1.60;;;;;;;;;;5130503;28;20423;-57
2021/05/17 05:45:45;;;;;;;3.97;2.03;;;;;;;;;;5100275;28;20450;-60
2021/05/17 05:48:18;;;;;;;6.50;3.43;;;;;;;;;;5135093;28;20496;-60
2021/05/17 05:50:46;;;;;;;3.50;1.43;;;;;;;;;;5127464;27;20484;-57
2021/05/17 05:53:16;;;;;;;4.60;1.97;;;;;;;;;;5135076;28;20492;-57
2021/05/17 05:55:45;;;;;;;3.30;1.60;;;;;;;;;;5132189;28;20542;-52
2021/05/17 05:58:16;;;;;;;4.40;1.57;;;;;;;;;;5123765;28;20446;-61
2021/05/17 06:01:00;;;;;;;4.30;1.67;;;;;;;;;;5130794;28;20444;-62
2021/05/17 06:03:33;;;;;;;4.77;1.97;;;;;;;;;;5131128;28;20465;-59
2021/05/17 06:06:03;;;;;;;3.57;1.50;;;;;;;;;;5134262;28;20496;-58
2021/05/17 06:08:31;;;;;;;5.70;1.80;;;;;;;;;;5129502;28;20469;-62
2021/05/17 06:11:07;;;;;;;4.40;1.40;;;;;;;;;;5116011;28;20469;-56
2021/05/17 06:13:37;;;;;;;4.17;1.70;;;;;;;;;;5125355;28;20504;-58
2021/05/17 06:16:05;;;;;;;6.17;1.33;;;;;;;;;;5130707;28;20462;-56
2021/05/17 06:18:34;;;;;;;2.83;1.50;;;;;;;;;;5113854;28;20450;-57
2021/05/17 06:21:02;;;;;;;2.53;1.40;;;;;;;;;;5126655;28;20609;-59
2021/05/17 06:23:36;;;;;;;3.40;1.23;;;;;;;;;;5123490;28;20479;-60
2021/05/17 06:26:03;;;;;;;3.00;1.40;;;;;;;;;;5133860;28;20447;-60
2021/05/17 06:28:30;;;;;;;4.60;1.30;;;;;;;;;;5123630;28;20479;-56
2021/05/17 06:31:00;;;;;;;4.53;1.37;;;;;;;;;;5135229;28;20462;-56
2021/05/17 06:33:29;;;;;;;10.90;2.20;;;;;;;;;;5129864;28;20454;-59
2021/05/17 06:35:57;;;;;;;5.63;1.80;;;;;;;;;;5137186;28;20439;-57
2021/05/17 06:38:30;;;;;;;4.80;1.43;;;;;;;;;;5122417;28;20437;-54
2021/05/17 06:40:58;;;;;;;4.40;1.97;;;;;;;;;;5129028;28;20458;-61
2021/05/17 06:43:29;;;;;;;6.80;1.30;;;;;;;;;;5135690;28;20453;-60
2021/05/17 06:45:56;;;;;;;5.80;1.43;;;;;;;;;;5118716;28;20516;-60
2021/05/17 06:48:23;;;;;;;3.63;1.00;;;;;;;;;;5119011;28;20491;-58
2021/05/17 06:50:57;;;;;;;7.00;1.30;;;;;;;;;;5120945;28;20503;-56
2021/05/17 06:53:24;;;;;;;4.80;1.20;;;;;;;;;;5138680;28;20438;-59
2021/05/17 06:56:01;;;;;;;4.03;1.30;;;;;;;;;;5134894;28;20458;-61
2021/05/17 06:58:51;;;;;;;3.23;1.40;;;;;;;;;;5118448;28;20502;-57
2021/05/17 07:01:19;;;;;;;9.70;2.13;;;;;;;;;;5133439;27;20456;-62
2021/05/17 07:03:48;;;;;;;5.77;2.00;;;;;;;;;;5138872;28;20466;-57
2021/05/17 07:06:26;;;;;;;3.70;1.53;;;;;;;;;;5129138;28;20511;-60
2021/05/17 07:11:49;;;;;;;6.63;1.47;;;;;;;;;;5130349;28;20478;-55
2021/05/17 07:14:16;;;;;;;3.80;1.63;;;;;;;;;;5112181;28;20458;-59
2021/05/17 07:16:43;;;;;;;3.80;1.40;;;;;;;;;;5113097;28;20446;-59
2021/05/17 07:19:10;;;;;;;3.20;1.27;;;;;;;;;;5113526;28;20810;-55
2021/05/17 07:24:48;;;;;;;5.30;1.30;;;;;;;;;;5117107;28;20438;-61
2021/05/17 07:27:16;;;;;;;3.80;0.90;;;;;;;;;;5117865;28;20572;-59
2021/05/17 07:29:45;;;;;;;5.40;1.67;;;;;;;;;;5117189;28;20467;-57
2021/05/17 07:32:26;;;;;;;3.27;1.10;;;;;;;;;;5115798;28;20428;-54
2021/05/17 07:34:55;;;;;;;2.90;0.90;;;;;;;;;;5102694;28;20443;-59
2021/05/17 07:37:25;;;;;;;2.20;1.00;;;;;;;;;;5117922;28;20509;-53
2021/05/17 07:39:54;;;;;;;7.57;1.33;;;;;;;;;;5102574;28;20436;-61
2021/05/17 07:42:21;;;;;;;5.27;1.50;;;;;;;;;;5109952;28;20474;-57
2021/05/17 07:44:48;;;;;;;3.70;0.90;;;;;;;;;;5115528;28;20451;-61
2021/05/17 07:47:16;;;;;;;3.53;1.00;;;;;;;;;;5114858;28;20428;-57
2021/05/17 07:49:44;;;;;;;2.20;0.90;;;;;;;;;;5112310;28;20490;-62
2021/05/17 07:52:44;;;;;;;2.00;0.90;;;;;;;;;;5117044;28;20516;-57
2021/05/17 07:55:13;;;;;;;3.03;1.00;;;;;;;;;;5116825;28;20455;-57
2021/05/17 07:57:40;;;;;;;2.83;1.10;;;;;;;;;;5113589;28;20443;-54
2021/05/17 08:00:25;;;;;;;4.83;0.87;;;;;;;;;;5113653;28;20466;-56
2021/05/17 08:02:56;;;;;;;7.43;1.40;;;;;;;;;;5098553;28;20671;-61
2021/05/17 08:05:23;;;;;;;3.07;1.13;;;;;;;;;;5089889;28;20520;-56
2021/05/17 08:07:53;;;;;;;2.93;1.20;;;;;;;;;;5076838;28;20460;-53
2021/05/17 08:10:20;;;;;;;2.80;1.10;;;;;;;;;;5081249;28;20454;-55
2021/05/17 08:12:47;;;;;;;13.83;2.47;;;;;;;;;;5096640;28;20477;-57
2021/05/17 08:15:37;;;;;;;3.00;1.60;;;;;;;;;;5097172;28;20456;-62
2021/05/17 08:18:08;;;;;;;3.60;1.10;;;;;;;;;;5093515;28;20467;-62
2021/05/17 08:20:35;;;;;;;6.17;1.43;;;;;;;;;;5096445;28;20509;-55
2021/05/17 08:23:17;;;;;;;3.93;1.07;;;;;;;;;;5096433;28;20486;-57
2021/05/17 08:25:46;;;;;;;4.10;0.90;;;;;;;;;;5109120;28;20474;-61
2021/05/17 08:28:13;;;;;;;2.53;0.80;;;;;;;;;;5116228;28;20483;-57
2021/05/17 08:30:53;;;;;;;5.90;1.40;;;;;;;;;;5116800;28;20451;-61
2021/05/17 08:33:21;;;;;;;7.77;4.47;;;;;;;;;;5112042;28;20439;-62
2021/05/17 08:35:50;;;;;;;7.70;5.20;;;;;;;;;;5116756;28;20466;-54
2021/05/17 08:38:17;;;;;;;4.43;1.43;;;;;;;;;;5116690;28;20439;-56
2021/05/17 08:40:46;;;;;;;6.83;1.10;;;;;;;;;;5116343;28;20443;-60
2021/05/17 08:43:40;;;;;;;4.53;1.40;;;;;;;;;;5116378;28;20463;-59
2021/05/17 08:46:19;;;;;;;6.70;1.47;;;;;;;;;;5105241;28;20507;-58
2021/05/17 08:48:47;;;;;;;2.73;0.83;;;;;;;;;;5116141;28;20499;-58
2021/05/17 08:51:15;;;;;;;4.20;1.60;;;;;;;;;;5114844;28;20485;-56
2021/05/17 08:53:45;;;;;;;3.00;1.10;;;;;;;;;;5115808;28;20443;-58
2021/05/17 08:56:22;;;;;;;3.23;1.27;;;;;;;;;;5114755;28;20516;-55
2021/05/17 08:58:49;;;;;;;4.50;0.97;;;;;;;;;;5116184;28;20450;-52
2021/05/17 09:01:19;;;;;;;2.80;1.20;;;;;;;;;;5110081;28;20563;-57
2021/05/17 09:03:54;;;;;;;3.80;1.40;;;;;;;;;;5114857;28;20462;-59
2021/05/17 09:06:23;;;;;;;2.00;0.80;;;;;;;;;;5115801;28;20431;-61
2021/05/17 09:08:57;;;;;;;3.53;1.10;;;;;;;;;;5115438;28;20592;-57
2021/05/17 09:11:32;;;;;;;2.70;0.73;;;;;;;;;;5107668;28;20467;-58
2021/05/17 09:14:21;;;;;;;2.20;0.90;;;;;;;;;;5112707;28;20443;-61
2021/05/17 09:16:49;;;;;;;4.07;1.30;;;;;;;;;;5093228;28;20551;-58
2021/05/17 09:19:17;;;;;;;2.93;1.07;;;;;;;;;;5094504;28;20440;-59
2021/05/17 09:22:06;;;;;;;3.60;1.20;;;;;;;;;;5101242;28;20503;-57
2021/05/17 09:24:37;;;;;;;6.37;1.80;;;;;;;;;;5105594;28;20458;-53
2021/05/17 09:27:10;;;;;;;3.17;1.20;;;;;;;;;;5094824;28;20456;-59
2021/05/17 09:29:41;;;;;;;3.80;0.83;;;;;;;;;;5099588;28;20499;-55
2021/05/17 09:32:35;;;;;;;3.53;1.20;;;;;;;;;;5150129;27;20488;-56
2021/05/17 09:35:10;;;;;;;3.30;1.10;;;;;;;;;;5153705;27;20450;-59
2021/05/17 09:37:45;;;;;;;2.93;0.80;;;;;;;;;;5155647;27;20464;-61
2021/05/17 09:40:25;;;;;;;4.80;1.30;;;;;;;;;;5155767;27;20440;-60
2021/05/17 09:43:07;;;;;;;2.73;1.10;;;;;;;;;;5147016;27;20488;-62
2021/05/17 09:45:37;;;;;;;3.93;1.30;;;;;;;;;;5140526;27;20452;-61
2021/05/17 09:48:10;;;;;;;3.30;1.57;;;;;;;;;;5155570;27;20453;-61
2021/05/17 09:50:52;;;;;;;3.47;1.20;;;;;;;;;;5153825;27;20441;-60
2021/05/17 09:53:22;;;;;;;11.60;1.97;;;;;;;;;;5134118;28;20450;-56
2021/05/17 09:55:52;;;;;;;6.20;1.50;;;;;;;;;;5134361;28;20437;-59
2021/05/17 09:58:31;;;;;;;4.13;1.20;;;;;;;;;;5153362;27;20463;-56
2021/05/17 10:01:19;;;;;;;2.40;1.00;;;;;;;;;;5156750;27;20453;-59
2021/05/17 10:03:48;;;;;;;3.07;1.30;;;;;;;;;;5140453;27;20489;-59
2021/05/17 10:06:19;;;;;;;5.27;1.30;;;;;;;;;;5152823;27;20448;-61
2021/05/17 10:08:46;;;;;;;3.87;1.17;;;;;;;;;;5155600;27;20489;-59
2021/05/17 10:11:14;;;;;;;3.80;1.60;;;;;;;;;;5155745;27;20433;-58
2021/05/17 10:13:43;;;;;;;2.90;1.20;;;;;;;;;;5155676;27;20437;-55
2021/05/17 10:16:13;;;;;;;4.07;2.73;;;;;;;;;;5157804;27;20456;-59
2021/05/17 10:18:50;;;;;;;2.93;1.23;;;;;;;;;;5157316;27;20430;-63
2021/05/17 10:21:21;;;;;;;3.50;1.10;;;;;;;;;;5156701;27;20453;-52
2021/05/17 10:23:50;;;;;;;5.73;1.50;;;;;;;;;;5156510;27;20429;-56
2021/05/17 10:26:20;;;;;;;3.20;1.20;;;;;;;;;;5156572;27;20782;-58
2021/05/17 10:28:52;;;;;;;3.07;1.30;;;;;;;;;;5156502;27;20540;-61
2021/05/17 10:31:21;;;;;;;3.20;1.10;;;;;;;;;;5154432;27;20453;-61
2021/05/17 10:34:07;;;;;;;2.30;1.00;;;;;;;;;;5143911;28;20457;-58
2021/05/17 10:36:46;;;;;;;2.10;0.83;;;;;;;;;;5154938;28;20481;-59
2021/05/17 10:39:23;;;;;;;3.20;0.93;;;;;;;;;;5136618;28;20443;-66
2021/05/17 10:42:12;;;;;;;3.40;1.40;;;;;;;;;;5138736;28;20501;-64
2021/05/17 10:47:47;;;;;;;6.67;2.30;;;;;;;;;;5141037;28;20468;-60
2021/05/17 10:50:15;;;;;;;3.53;1.70;;;;;;;;;;5136221;28;20636;-60
2021/05/17 10:52:42;;;;;;;8.80;1.80;;;;;;;;;;5137942;28;20450;-59
2021/05/17 10:55:13;;;;;;;3.80;0.90;;;;;;;;;;5139859;28;20453;-57
2021/05/17 10:58:10;;;;;;;5.27;1.20;;;;;;;;;;5143738;28;20454;-58
2021/05/17 11:01:14;;;;;;;4.20;1.53;;;;;;;;;;5135988;28;20454;-54
2021/05/17 11:03:41;;;;;;;4.27;1.33;;;;;;;;;;5137766;28;20470;-60
2021/05/17 11:06:10;;;;;;;5.27;1.30;;;;;;;;;;5147707;28;20457;-57
2021/05/17 11:08:52;;;;;;;4.00;1.67;;;;;;;;;;5138563;28;20482;-57
2021/05/17 11:11:21;;;;;;;4.27;1.43;;;;;;;;;;5121719;28;20500;-58
2021/05/17 11:13:48;;;;;;;2.97;1.13;;;;;;;;;;5110769;28;20440;-58
2021/05/17 11:16:16;;;;;;;4.37;1.73;;;;;;;;;;5112227;28;20491;-58
2021/05/17 11:18:55;;;;;;;3.77;1.77;;;;;;;;;;5108520;28;20462;-62
2021/05/17 11:21:50;;;;;;;9.97;1.30;;;;;;;;;;5098665;28;20449;-63
2021/05/17 11:24:17;;;;;;;6.63;1.27;;;;;;;;;;5098041;28;20463;-58
2021/05/17 11:26:54;;;;;;;3.77;1.30;;;;;;;;;;5098463;28;20451;-61
2021/05/17 11:29:35;;;;;;;3.53;1.20;;;;;;;;;;5109243;28;20549;-56
2021/05/17 11:32:26;;;;;;;2.67;1.13;;;;;;;;;;5113446;28;20632;-59
2021/05/17 11:35:01;;;;;;;4.60;1.00;;;;;;;;;;5105497;28;20448;-62
2021/05/17 11:37:30;;;;;;;2.33;1.00;;;;;;;;;;5118669;28;20485;-57
2021/05/17 11:40:43;;;;;;;3.20;1.40;;;;;;;;;;5104362;28;20498;-64
2021/05/17 11:43:13;;;;;;;3.10;0.90;;;;;;;;;;5018429;28;20459;-63
2021/05/17 11:46:05;;;;;;;5.37;0.80;;;;;;;;;;5037220;28;20435;-55
2021/05/17 11:48:37;;;;;;;2.87;1.10;;;;;;;;;;5031556;28;20493;-61
2021/05/17 11:54:08;;;;;;;2.63;1.43;;;;;;;;;;5112852;28;20488;-61
2021/05/17 11:56:35;;;;;;;3.03;1.40;;;;;;;;;;5117432;28;20443;-59
2021/05/17 11:59:19;;;;;;;7.20;2.10;;;;;;;;;;5117239;28;20451;-55
2021/05/17 12:01:47;;;;;;;17.97;3.17;;;;;;;;;;5145117;27;20489;-59
2021/05/17 12:04:14;;;;;;;3.50;0.93;;;;;;;;;;5159189;27;20441;-56
2021/05/17 12:06:55;;;;;;;2.87;1.03;;;;;;;;;;5160126;27;20437;-58
2021/05/17 12:09:35;;;;;;;3.07;0.80;;;;;;;;;;5159811;27;20510;-58
2021/05/17 12:12:03;;;;;;;2.40;1.07;;;;;;;;;;5159427;27;20434;-56
2021/05/17 12:14:40;;;;;;;3.20;2.30;;;;;;;;;;5160093;27;20452;-59
2021/05/17 12:17:22;;;;;;;4.83;1.23;;;;;;;;;;5142144;27;20446;-61
2021/05/17 12:19:50;;;;;;;2.83;1.10;;;;;;;;;;5138962;28;20458;-61
2021/05/17 12:22:30;;;;;;;2.90;1.40;;;;;;;;;;5139172;28;20446;-56
2021/05/17 12:24:58;;;;;;;4.27;1.27;;;;;;;;;;5138541;27;20454;-59
2021/05/17 12:27:26;;;;;;;7.43;1.97;;;;;;;;;;5157770;27;20458;-56
2021/05/17 12:30:22;;;;;;;5.20;2.03;;;;;;;;;;5158895;27;20450;-56
2021/05/17 12:32:51;;;;;;;6.60;2.17;;;;;;;;;;5158456;27;20446;-57
2021/05/17 12:35:25;;;;;;;3.13;1.40;;;;;;;;;;5159175;27;20533;-56
2021/05/17 12:38:15;;;;;;;2.73;1.70;;;;;;;;;;5159425;27;20453;-57
2021/05/17 12:40:42;;;;;;;3.80;1.57;;;;;;;;;;5159377;27;20457;-59
2021/05/17 12:43:11;;;;;;;6.27;1.40;;;;;;;;;;5155320;27;20467;-61
2021/05/17 12:48:43;;;;;;;2.40;0.97;;;;;;;;;;5135728;28;20527;-53
2021/05/17 12:51:15;;;;;;;3.27;1.10;;;;;;;;;;5138492;28;20476;-53
2021/05/17 12:53:53;;;;;;;4.00;1.70;;;;;;;;;;5136525;28;20510;-58
2021/05/17 12:56:33;;;;;;;4.70;1.60;;;;;;;;;;5126744;28;20482;-63
2021/05/17 12:59:06;;;;;;;3.10;1.60;;;;;;;;;;5119843;28;20419;-59
2021/05/17 13:01:51;;;;;;;2.90;1.33;;;;;;;;;;5125339;28;20537;-51
2021/05/17 13:04:23;;;;;;;5.27;2.30;;;;;;;;;;5119762;28;20458;-59
2021/05/17 13:07:02;;;;;;;4.60;1.90;;;;;;;;;;5138327;28;20447;-61
2021/05/17 13:09:41;;;;;;;3.73;1.60;;;;;;;;;;5135779;28;20568;-61
2021/05/17 13:12:08;;;;;;;8.80;1.90;;;;;;;;;;5136137;28;20430;-59
2021/05/17 13:14:44;;;;;;;4.33;1.67;;;;;;;;;;5135314;28;20522;-57
2021/05/17 13:17:27;;;;;;;3.20;1.70;;;;;;;;;;5117577;28;20423;-57
2021/05/17 13:19:58;;;;;;;3.07;1.90;;;;;;;;;;5117335;28;20536;-60
2021/05/17 13:23:01;;;;;;;5.60;2.20;;;;;;;;;;5126977;28;20439;-60
2021/05/17 13:31:22;;;;;;;5.87;2.90;;;;;;;;;;5125598;28;20494;-56
2021/05/17 13:33:50;;;;;;;5.97;2.20;;;;;;;;;;5137063;28;20462;-54
2021/05/17 13:41:55;;;;;;;4.63;2.10;;;;;;;;;;5119314;28;20466;-59
2021/05/17 13:44:25;;;;;;;5.30;2.77;;;;;;;;;;5119739;27;20463;-57
2021/05/17 13:47:03;;;;;;;4.37;2.50;;;;;;;;;;5118881;28;20519;-56
2021/05/17 13:49:33;;;;;;;6.80;2.70;;;;;;;;;;5117820;28;20474;-59
2021/05/17 13:52:12;;;;;;;4.37;2.47;;;;;;;;;;5135247;28;20434;-58
2021/05/17 13:54:39;;;;;;;6.53;3.43;;;;;;;;;;5123542;28;20459;-57
2021/05/17 13:57:10;;;;;;;7.97;3.80;;;;;;;;;;5125556;28;20454;-54
2021/05/17 13:59:44;;;;;;;10.60;3.20;;;;;;;;;;5135944;28;20641;-61
2021/05/17 14:02:14;;;;;;;5.80;3.10;;;;;;;;;;5135075;28;20436;-59
2021/05/17 14:04:49;;;;;;;6.30;2.87;;;;;;;;;;5115305;28;20458;-53
2021/05/17 14:07:34;;;;;;;5.13;2.20;;;;;;;;;;5115090;28;20427;-59
2021/05/17 14:10:02;;;;;;;5.20;2.30;;;;;;;;;;5125247;28;20567;-53
2021/05/17 14:12:30;;;;;;;4.47;1.80;;;;;;;;;;5128751;28;20451;-54
2021/05/17 14:15:12;;;;;;;6.87;3.50;;;;;;;;;;5134455;28;20450;-63
2021/05/17 14:17:39;;;;;;;6.70;4.10;;;;;;;;;;5134291;27;20499;-60
2021/05/17 14:20:07;;;;;;;7.80;2.60;;;;;;;;;;5134365;28;20434;-57
2021/05/17 14:22:34;;;;;;;5.03;2.97;;;;;;;;;;5134390;28;20443;-58
2021/05/17 14:25:01;;;;;;;5.27;2.20;;;;;;;;;;5122440;28;20443;-58
2021/05/17 14:27:31;;;;;;;4.70;3.30;;;;;;;;;;5134531;28;20438;-57
2021/05/17 14:29:58;;;;;;;4.33;2.43;;;;;;;;;;5134449;28;20474;-64
2021/05/17 14:32:31;;;;;;;6.33;2.70;;;;;;;;;;5133394;28;20481;-54
2021/05/17 14:34:59;;;;;;;5.30;2.83;;;;;;;;;;5126322;28;20493;-59
2021/05/17 14:37:26;;;;;;;4.83;2.20;;;;;;;;;;5110464;28;20462;-57
2021/05/17 14:39:56;;;;;;;5.87;2.50;;;;;;;;;;5129232;28;20742;-56
2021/05/17 14:42:23;;;;;;;5.97;3.50;;;;;;;;;;5132013;28;20442;-59
2021/05/17 14:44:51;;;;;;;8.17;3.87;;;;;;;;;;5134113;28;20462;-60
2021/05/17 14:47:32;;;;;;;7.93;3.07;;;;;;;;;;5130995;28;20480;-55
2021/05/17 14:50:00;;;;;;;5.43;2.83;;;;;;;;;;5134684;28;20469;-56
2021/05/17 14:52:29;;;;;;;5.87;2.80;;;;;;;;;;5134175;28;20466;-59
2021/05/17 14:54:58;;;;;;;5.83;3.07;;;;;;;;;;5132321;28;20472;-60
2021/05/17 14:57:27;;;;;;;11.10;4.87;;;;;;;;;;5129775;28;20453;-56
2021/05/17 14:59:58;;;;;;;6.40;3.30;;;;;;;;;;5134780;28;20447;-53
2021/05/17 15:02:28;;;;;;;5.70;3.20;;;;;;;;;;5133955;28;20454;-62
2021/05/17 15:04:56;;;;;;;6.40;3.20;;;;;;;;;;5138983;28;20465;-60
2021/05/17 15:07:33;;;;;;;11.70;3.47;;;;;;;;;;5137848;28;20446;-63
2021/05/17 15:10:00;;;;;;;8.27;4.73;;;;;;;;;;5120921;28;20474;-53
2021/05/17 15:12:27;;;;;;;6.30;3.23;;;;;;;;;;5135794;28;20427;-59
2021/05/17 15:14:55;;;;;;;10.70;6.57;;;;;;;;;;5119526;28;20443;-57
2021/05/17 15:17:34;;;;;;;10.20;4.33;;;;;;;;;;5127072;28;20458;-57
2021/05/17 15:20:04;;;;;;;7.57;2.83;;;;;;;;;;5151798;27;20482;-60
2021/05/17 15:22:34;;;;;;;14.10;4.40;;;;;;;;;;5147588;27;20461;-57
2021/05/17 15:25:01;;;;;;;14.13;3.83;;;;;;;;;;5147856;27;20454;-58
2021/05/17 15:27:28;;;;;;;7.10;3.30;;;;;;;;;;5138746;27;20605;-56
2021/05/17 15:30:05;;;;;;;5.00;3.40;;;;;;;;;;5141015;27;20460;-57
2021/05/17 15:32:57;;;;;;;7.20;4.03;;;;;;;;;;5142720;27;20449;-56
2021/05/17 15:35:28;;;;;;;10.97;5.70;;;;;;;;;;5136516;27;20449;-59
2021/05/17 15:37:56;;;;;;;15.87;5.93;;;;;;;;;;5140933;27;20559;-55
2021/05/17 15:40:23;;;;;;;12.23;5.80;;;;;;;;;;5150939;27;20453;-50
2021/05/17 15:45:54;;;;;;;11.60;8.13;;;;;;;;;;5137120;27;20928;-56
2021/05/17 15:48:22;;;;;;;10.20;7.73;;;;;;;;;;5157933;27;20465;-52
2021/05/17 15:51:09;;;;;;;14.37;7.90;;;;;;;;;;5149780;27;20466;-57
2021/05/17 15:53:37;;;;;;;15.57;7.43;;;;;;;;;;5150280;27;20451;-57
2021/05/17 15:56:15;;;;;;;22.20;7.10;;;;;;;;;;5147537;27;20504;-56